Time;durP1;ratioP1;P1;durP2;ratioP2;P2;SDS_P1;SDS_P2;PMS_P1;PMS_P2;Temp;Humidity;BMP_temperature;BMP_pressure;BME280_temperature;BME280_humidity;BME280_pressure;Samples;Min_cycle;Max_cycle;Signal;HPM_P1;HPM_P2
2021/10/22 00:00:39;;;;;;;10.77;1.25;;;;;;;;;;5054554;28;20033;-64
2021/10/22 00:03:05;;;;;;;5.88;1.30;;;;;;;;;;5054484;28;20408;-64
2021/10/22 00:05:33;;;;;;;6.40;1.40;;;;;;;;;;5054395;28;20041;-64
2021/10/22 00:07:59;;;;;;;5.57;1.30;;;;;;;;;;5054383;28;20113;-64
2021/10/22 00:10:25;;;;;;;6.18;1.02;;;;;;;;;;5054518;28;20055;-64
2021/10/22 00:12:51;;;;;;;9.63;1.30;;;;;;;;;;5054535;28;20025;-64
2021/10/22 00:15:17;;;;;;;5.00;1.20;;;;;;;;;;5054174;28;20036;-64
2021/10/22 00:17:43;;;;;;;8.68;1.25;;;;;;;;;;5054375;28;20021;-64
2021/10/22 00:20:10;;;;;;;6.63;1.30;;;;;;;;;;5054207;28;20029;-64
2021/10/22 00:22:37;;;;;;;6.03;1.50;;;;;;;;;;5054468;28;20053;-64
2021/10/22 00:25:03;;;;;;;4.07;1.30;;;;;;;;;;5053930;28;20080;-64
2021/10/22 00:27:29;;;;;;;6.45;1.27;;;;;;;;;;5059412;28;20372;-64
2021/10/22 00:29:55;;;;;;;4.75;1.17;;;;;;;;;;5074029;28;20032;-64
2021/10/22 00:32:21;;;;;;;8.40;1.20;;;;;;;;;;5073847;28;20460;-64
2021/10/22 00:34:47;;;;;;;5.38;1.30;;;;;;;;;;5073885;28;20021;-64
2021/10/22 00:37:13;;;;;;;4.45;1.13;;;;;;;;;;5073959;28;20024;-64
2021/10/22 00:39:39;;;;;;;4.65;1.00;;;;;;;;;;5073779;28;20051;-64
2021/10/22 00:42:07;;;;;;;5.80;1.25;;;;;;;;;;5073698;28;20028;-64
2021/10/22 00:44:33;;;;;;;3.33;1.05;;;;;;;;;;5058970;28;20415;-65
2021/10/22 00:46:59;;;;;;;6.97;1.30;;;;;;;;;;5052852;28;20033;-64
2021/10/22 00:49:26;;;;;;;6.90;1.08;;;;;;;;;;5053636;28;20140;-64
2021/10/22 00:51:52;;;;;;;7.38;1.27;;;;;;;;;;5053726;28;20028;-64
2021/10/22 00:54:19;;;;;;;6.90;1.20;;;;;;;;;;5053862;28;20024;-64
2021/10/22 00:56:47;;;;;;;4.32;1.23;;;;;;;;;;5053495;28;20033;-64
2021/10/22 00:59:13;;;;;;;5.60;1.08;;;;;;;;;;5053620;28;20060;-64
2021/10/22 01:01:40;;;;;;;5.10;1.10;;;;;;;;;;5053816;28;20112;-64
2021/10/22 01:04:08;;;;;;;7.75;1.20;;;;;;;;;;5053529;28;20036;-64
2021/10/22 01:06:38;;;;;;;24.33;1.08;;;;;;;;;;5053274;28;20052;-64
2021/10/22 01:09:05;;;;;;;5.53;1.05;;;;;;;;;;5053539;28;20028;-64
2021/10/22 01:11:31;;;;;;;3.97;1.17;;;;;;;;;;5053261;28;20028;-64
2021/10/22 01:13:57;;;;;;;5.72;1.20;;;;;;;;;;5053193;28;20017;-64
2021/10/22 01:16:23;;;;;;;4.70;1.17;;;;;;;;;;5053188;28;20033;-64
2021/10/22 01:18:50;;;;;;;9.20;1.05;;;;;;;;;;5053093;28;20048;-64
2021/10/22 01:21:16;;;;;;;7.18;1.13;;;;;;;;;;5053144;28;20021;-63
2021/10/22 01:23:42;;;;;;;5.88;1.20;;;;;;;;;;5053190;28;20075;-64
2021/10/22 01:26:08;;;;;;;8.43;1.40;;;;;;;;;;5052811;28;20055;-64
2021/10/22 01:28:34;;;;;;;5.50;1.33;;;;;;;;;;5035145;28;20485;-64
2021/10/22 01:31:01;;;;;;;5.75;1.40;;;;;;;;;;5053144;28;20037;-64
2021/10/22 01:33:27;;;;;;;5.32;1.15;;;;;;;;;;5053009;28;20380;-64
2021/10/22 01:35:54;;;;;;;4.85;1.20;;;;;;;;;;5035283;28;20105;-64
2021/10/22 01:38:22;;;;;;;5.15;1.17;;;;;;;;;;5053186;28;20128;-64
2021/10/22 01:40:49;;;;;;;2.83;1.10;;;;;;;;;;5052833;28;20409;-64
2021/10/22 01:43:16;;;;;;;6.30;1.45;;;;;;;;;;5052871;28;20461;-64
2021/10/22 01:45:42;;;;;;;9.23;1.42;;;;;;;;;;5053273;28;20154;-64
2021/10/22 01:48:08;;;;;;;5.38;1.10;;;;;;;;;;5053085;28;20128;-66
2021/10/22 01:50:34;;;;;;;7.65;1.30;;;;;;;;;;5052835;28;20021;-65
2021/10/22 01:53:00;;;;;;;8.07;1.42;;;;;;;;;;5052890;28;20039;-64
2021/10/22 01:55:26;;;;;;;6.63;1.45;;;;;;;;;;5052911;28;20021;-64
2021/10/22 01:57:52;;;;;;;6.07;1.27;;;;;;;;;;5054220;28;20021;-63
2021/10/22 02:00:18;;;;;;;7.38;1.13;;;;;;;;;;5056827;28;20035;-63
2021/10/22 02:02:44;;;;;;;8.70;1.85;;;;;;;;;;5057029;28;20013;-64
2021/10/22 02:05:10;;;;;;;11.93;1.50;;;;;;;;;;5056683;28;20044;-64
2021/10/22 02:07:36;;;;;;;6.45;1.25;;;;;;;;;;5056687;28;20025;-64
2021/10/22 02:10:03;;;;;;;6.68;1.45;;;;;;;;;;5056577;28;20407;-64
2021/10/22 02:12:29;;;;;;;6.38;1.70;;;;;;;;;;5056588;28;20433;-63
2021/10/22 02:14:55;;;;;;;5.25;1.33;;;;;;;;;;5056382;28;20032;-64
2021/10/22 02:17:21;;;;;;;4.25;1.10;;;;;;;;;;5056802;28;20083;-64
2021/10/22 02:19:47;;;;;;;6.07;1.40;;;;;;;;;;5056580;28;20029;-64
2021/10/22 02:22:13;;;;;;;7.80;1.20;;;;;;;;;;5056539;28;20082;-64
2021/10/22 02:24:39;;;;;;;8.02;1.23;;;;;;;;;;5056521;28;20449;-64
2021/10/22 02:27:05;;;;;;;7.85;1.42;;;;;;;;;;5058349;28;20091;-64
2021/10/22 02:29:31;;;;;;;6.15;1.30;;;;;;;;;;5076163;28;20035;-64
2021/10/22 02:31:57;;;;;;;6.15;1.15;;;;;;;;;;5076495;28;20055;-64
2021/10/22 02:34:23;;;;;;;7.50;1.40;;;;;;;;;;5076158;28;20060;-64
2021/10/22 02:36:49;;;;;;;6.70;1.58;;;;;;;;;;5076446;28;20097;-64
2021/10/22 02:39:16;;;;;;;10.68;1.73;;;;;;;;;;5058148;28;20441;-64
2021/10/22 02:41:42;;;;;;;6.45;1.48;;;;;;;;;;5076038;28;20380;-64
2021/10/22 02:44:08;;;;;;;9.15;1.55;;;;;;;;;;5064894;28;20068;-63
2021/10/22 02:46:34;;;;;;;6.28;1.70;;;;;;;;;;5055901;28;20041;-64
2021/10/22 02:49:00;;;;;;;7.72;1.50;;;;;;;;;;5055941;28;20029;-64
2021/10/22 02:51:26;;;;;;;7.07;1.55;;;;;;;;;;5055877;28;20029;-64
2021/10/22 02:53:52;;;;;;;5.93;1.30;;;;;;;;;;5056121;28;20017;-64
2021/10/22 02:56:18;;;;;;;6.03;1.40;;;;;;;;;;5055819;28;20071;-64
2021/10/22 02:58:44;;;;;;;10.35;1.58;;;;;;;;;;5055739;28;20039;-64
2021/10/22 03:01:10;;;;;;;8.77;1.55;;;;;;;;;;5055624;28;20539;-64
2021/10/22 03:03:36;;;;;;;6.32;1.40;;;;;;;;;;5055799;28;20017;-64
2021/10/22 03:06:02;;;;;;;7.20;1.40;;;;;;;;;;5055570;28;20039;-64
2021/10/22 03:08:28;;;;;;;6.95;1.38;;;;;;;;;;5055675;28;20025;-64
2021/10/22 03:10:54;;;;;;;6.68;1.40;;;;;;;;;;5036908;28;20031;-63
2021/10/22 03:13:20;;;;;;;14.57;1.40;;;;;;;;;;5055383;28;20025;-64
2021/10/22 03:15:46;;;;;;;28.52;1.80;;;;;;;;;;5055256;28;20031;-64
2021/10/22 03:18:12;;;;;;;6.32;1.58;;;;;;;;;;5055311;28;20025;-64
2021/10/22 03:20:38;;;;;;;6.97;1.45;;;;;;;;;;5055210;28;20082;-64
2021/10/22 03:23:04;;;;;;;4.82;1.45;;;;;;;;;;5055515;28;20029;-64
2021/10/22 03:25:31;;;;;;;9.63;1.63;;;;;;;;;;5054872;28;20106;-64
2021/10/22 03:28:06;;;;;;;6.28;1.65;;;;;;;;;;5064578;28;20081;-63
2021/10/22 03:30:32;;;;;;;7.45;1.20;;;;;;;;;;5075069;28;20119;-64
2021/10/22 03:32:58;;;;;;;6.82;1.50;;;;;;;;;;5075371;28;20024;-64
2021/10/22 03:35:24;;;;;;;8.68;1.15;;;;;;;;;;5075206;28;20028;-64
2021/10/22 03:37:51;;;;;;;4.18;1.10;;;;;;;;;;5075202;28;20069;-64
2021/10/22 03:40:17;;;;;;;5.72;1.48;;;;;;;;;;5074603;28;20025;-64
2021/10/22 03:42:43;;;;;;;4.03;1.15;;;;;;;;;;5074788;28;20178;-63
2021/10/22 03:45:09;;;;;;;5.57;1.20;;;;;;;;;;5055293;28;20040;-63
2021/10/22 03:47:35;;;;;;;11.05;1.20;;;;;;;;;;5054648;28;20111;-64
2021/10/22 03:50:01;;;;;;;6.07;1.25;;;;;;;;;;5054770;28;20056;-64
2021/10/22 03:52:27;;;;;;;15.57;1.70;;;;;;;;;;5054813;28;20040;-63
2021/10/22 03:54:53;;;;;;;9.27;1.58;;;;;;;;;;5054772;28;20017;-64
2021/10/22 03:57:19;;;;;;;6.38;1.60;;;;;;;;;;5054771;28;20033;-64
2021/10/22 03:59:46;;;;;;;9.43;1.45;;;;;;;;;;5054370;28;20419;-64
2021/10/22 04:02:12;;;;;;;8.48;1.50;;;;;;;;;;5054456;28;20066;-64
2021/10/22 04:04:38;;;;;;;12.68;1.35;;;;;;;;;;5054757;28;20025;-64
2021/10/22 04:07:04;;;;;;;6.20;1.45;;;;;;;;;;5036345;28;20033;-64
2021/10/22 04:09:34;;;;;;;13.25;1.45;;;;;;;;;;5054388;28;20023;-64
2021/10/22 04:12:01;;;;;;;4.55;1.05;;;;;;;;;;5054328;28;20379;-63
2021/10/22 04:14:27;;;;;;;5.43;1.05;;;;;;;;;;5054416;28;20032;-63
2021/10/22 04:16:56;;;;;;;9.77;1.50;;;;;;;;;;5054255;28;20025;-64
2021/10/22 04:19:22;;;;;;;8.27;1.35;;;;;;;;;;5055835;28;20052;-63
2021/10/22 04:21:48;;;;;;;4.40;1.00;;;;;;;;;;5066094;28;20063;-64
2021/10/22 04:24:14;;;;;;;5.72;1.27;;;;;;;;;;5065248;28;20025;-64
2021/10/22 04:26:40;;;;;;;6.38;1.05;;;;;;;;;;5067966;28;20050;-63
2021/10/22 04:29:06;;;;;;;6.40;1.27;;;;;;;;;;5054943;28;20107;-63
2021/10/22 04:31:32;;;;;;;5.22;1.08;;;;;;;;;;5053995;28;20096;-63
2021/10/22 04:33:58;;;;;;;3.40;1.08;;;;;;;;;;5053944;28;20415;-64
2021/10/22 04:36:24;;;;;;;7.18;1.30;;;;;;;;;;5053960;28;20037;-63
2021/10/22 04:41:35;;;;;;;10.40;0.95;;;;;;;;;;5053702;28;20040;-63
2021/10/22 04:44:01;;;;;;;10.90;1.30;;;;;;;;;;5053544;28;20021;-63
2021/10/22 04:46:27;;;;;;;6.05;1.00;;;;;;;;;;5053658;28;20037;-63
2021/10/22 04:48:53;;;;;;;6.80;1.20;;;;;;;;;;5053490;28;20169;-64
2021/10/22 04:51:19;;;;;;;7.10;1.20;;;;;;;;;;5053641;28;20029;-64
2021/10/22 04:53:45;;;;;;;7.70;1.27;;;;;;;;;;5053747;28;20028;-64
2021/10/22 04:56:12;;;;;;;10.60;1.00;;;;;;;;;;5053462;28;20017;-63
2021/10/22 04:58:38;;;;;;;4.22;0.90;;;;;;;;;;5053271;28;20021;-63
2021/10/22 05:01:04;;;;;;;4.43;1.10;;;;;;;;;;5058236;28;20034;-64
2021/10/22 05:03:30;;;;;;;6.65;1.10;;;;;;;;;;5073464;28;20036;-63
2021/10/22 05:05:56;;;;;;;6.93;1.02;;;;;;;;;;5073171;28;20083;-63
2021/10/22 05:08:22;;;;;;;10.70;1.27;;;;;;;;;;5073361;28;20107;-63
2021/10/22 05:10:49;;;;;;;4.35;1.08;;;;;;;;;;5073299;28;20427;-63
2021/10/22 05:13:16;;;;;;;3.85;0.98;;;;;;;;;;5073317;28;20029;-63
2021/10/22 05:15:42;;;;;;;5.93;1.38;;;;;;;;;;5053868;28;20420;-64
2021/10/22 05:18:08;;;;;;;13.38;1.35;;;;;;;;;;5053399;28;20523;-63
2021/10/22 05:20:34;;;;;;;6.93;1.35;;;;;;;;;;5053147;28;20104;-64
2021/10/22 05:23:00;;;;;;;7.15;1.08;;;;;;;;;;5053328;28;20028;-64
2021/10/22 05:25:26;;;;;;;5.95;1.20;;;;;;;;;;5052801;28;20118;-63
2021/10/22 05:27:52;;;;;;;3.53;1.00;;;;;;;;;;5061664;28;20055;-64
2021/10/22 05:30:18;;;;;;;11.35;1.25;;;;;;;;;;5072981;28;20039;-63
2021/10/22 05:32:45;;;;;;;5.93;1.20;;;;;;;;;;5072801;28;20438;-63
2021/10/22 05:35:11;;;;;;;10.57;1.15;;;;;;;;;;5072987;28;20044;-64
2021/10/22 05:37:38;;;;;;;8.30;1.23;;;;;;;;;;5073128;28;20060;-63
2021/10/22 05:40:04;;;;;;;6.40;1.05;;;;;;;;;;5072993;28;20040;-64
2021/10/22 05:42:30;;;;;;;10.85;1.33;;;;;;;;;;5072936;28;20021;-64
2021/10/22 05:44:56;;;;;;;9.98;1.25;;;;;;;;;;5054798;28;20021;-63
2021/10/22 05:47:22;;;;;;;12.75;1.50;;;;;;;;;;5053085;28;20040;-64
2021/10/22 05:49:48;;;;;;;7.90;1.10;;;;;;;;;;5052896;28;20024;-63
2021/10/22 05:52:16;;;;;;;12.88;1.23;;;;;;;;;;5052745;28;20029;-63
2021/10/22 05:54:42;;;;;;;12.85;1.15;;;;;;;;;;5052715;28;20032;-64
2021/10/22 05:57:08;;;;;;;7.32;1.20;;;;;;;;;;5052674;28;20029;-63
2021/10/22 05:59:34;;;;;;;11.65;1.10;;;;;;;;;;5056023;28;20103;-63
2021/10/22 06:02:00;;;;;;;10.15;1.27;;;;;;;;;;5061446;28;20520;-64
2021/10/22 06:04:26;;;;;;;10.27;1.00;;;;;;;;;;5061824;28;20031;-64
2021/10/22 06:06:52;;;;;;;15.90;1.55;;;;;;;;;;5061247;28;20036;-63
2021/10/22 06:09:18;;;;;;;28.52;2.05;;;;;;;;;;5047150;28;20397;-65
2021/10/22 06:11:44;;;;;;;31.88;2.15;;;;;;;;;;5055059;28;20048;-64
2021/10/22 06:14:10;;;;;;;23.35;1.67;;;;;;;;;;5062178;28;20021;-63
2021/10/22 06:16:36;;;;;;;17.92;1.50;;;;;;;;;;5052927;28;20060;-64
2021/10/22 06:19:04;;;;;;;26.65;2.03;;;;;;;;;;5031782;28;20045;-65
2021/10/22 06:24:03;;;;;;;17.73;1.73;;;;;;;;;;5040715;28;20100;-65
2021/10/22 06:26:42;;;;;;;28.13;1.65;;;;;;;;;;5037469;28;20052;-63
2021/10/22 06:29:10;;;;;;;30.90;1.95;;;;;;;;;;5045192;28;20020;-64
2021/10/22 06:31:38;;;;;;;20.10;1.80;;;;;;;;;;5057276;28;20028;-63
2021/10/22 06:34:04;;;;;;;17.00;1.98;;;;;;;;;;5040714;28;20044;-63
2021/10/22 06:36:30;;;;;;;11.00;1.35;;;;;;;;;;5063342;28;20545;-64
2021/10/22 06:38:57;;;;;;;19.90;1.77;;;;;;;;;;5057907;28;20029;-64
2021/10/22 06:41:23;;;;;;;11.15;1.45;;;;;;;;;;5060132;28;20071;-64
2021/10/22 06:43:53;;;;;;;6.97;1.25;;;;;;;;;;5058771;28;20028;-64
2021/10/22 06:46:20;;;;;;;7.32;1.30;;;;;;;;;;5066658;28;20435;-65
2021/10/22 06:48:46;;;;;;;6.18;1.25;;;;;;;;;;5067084;28;20517;-69
2021/10/22 06:51:13;;;;;;;9.88;1.80;;;;;;;;;;5066189;28;20055;-65
2021/10/22 06:53:39;;;;;;;8.05;1.35;;;;;;;;;;5067732;28;20483;-63
2021/10/22 06:56:06;;;;;;;13.27;1.40;;;;;;;;;;5070255;28;20029;-63
2021/10/22 06:58:32;;;;;;;11.43;2.00;;;;;;;;;;5055566;28;20062;-64
2021/10/22 07:00:59;;;;;;;11.10;1.58;;;;;;;;;;5055880;28;20119;-64
2021/10/22 07:03:27;;;;;;;13.77;1.50;;;;;;;;;;5055354;28;20027;-66
2021/10/22 07:08:23;;;;;;;11.75;1.67;;;;;;;;;;5055249;28;20029;-64
2021/10/22 07:10:49;;;;;;;10.73;1.48;;;;;;;;;;5055205;28;20381;-63
2021/10/22 07:13:15;;;;;;;7.93;1.10;;;;;;;;;;5055315;28;20504;-64
2021/10/22 07:15:41;;;;;;;9.75;1.83;;;;;;;;;;5055292;28;20033;-64
2021/10/22 07:18:07;;;;;;;6.18;1.60;;;;;;;;;;5063764;28;20052;-62
2021/10/22 07:20:35;;;;;;;15.18;1.65;;;;;;;;;;5055264;28;20036;-64
2021/10/22 07:23:08;;;;;;;11.15;1.70;;;;;;;;;;5055199;28;20104;-64
2021/10/22 07:25:37;;;;;;;12.50;1.55;;;;;;;;;;5054969;28;20170;-64
2021/10/22 07:28:22;;;;;;;19.33;1.83;;;;;;;;;;5064995;28;20024;-64
2021/10/22 07:30:48;;;;;;;13.07;1.38;;;;;;;;;;5074967;28;20025;-64
2021/10/22 07:33:16;;;;;;;19.63;1.77;;;;;;;;;;5052754;28;20536;-64
2021/10/22 07:35:42;;;;;;;7.95;1.60;;;;;;;;;;5049165;28;20546;-65
2021/10/22 07:38:12;;;;;;;14.63;1.80;;;;;;;;;;5054260;28;20072;-64
2021/10/22 07:40:39;;;;;;;17.35;2.35;;;;;;;;;;5054311;28;20021;-64
2021/10/22 07:43:06;;;;;;;9.43;1.83;;;;;;;;;;5054243;28;20035;-64
2021/10/22 07:45:32;;;;;;;16.02;2.30;;;;;;;;;;5054213;28;20021;-63
2021/10/22 07:47:58;;;;;;;7.68;1.27;;;;;;;;;;5054179;28;20029;-63
2021/10/22 07:50:24;;;;;;;8.82;1.83;;;;;;;;;;5056410;28;20040;-64
2021/10/22 07:52:50;;;;;;;18.15;2.50;;;;;;;;;;5062540;28;20025;-65
2021/10/22 07:55:16;;;;;;;15.70;1.80;;;;;;;;;;5063435;28;20460;-64
2021/10/22 07:57:42;;;;;;;9.48;1.70;;;;;;;;;;5063804;28;20013;-64
2021/10/22 08:00:09;;;;;;;14.77;2.20;;;;;;;;;;5065409;28;20028;-65
2021/10/22 08:02:36;;;;;;;16.08;1.90;;;;;;;;;;5065335;28;20013;-63
2021/10/22 08:05:03;;;;;;;12.70;2.20;;;;;;;;;;5062442;28;20656;-63
2021/10/22 08:07:30;;;;;;;17.58;2.03;;;;;;;;;;5060481;28;20468;-63
2021/10/22 08:09:57;;;;;;;12.70;2.08;;;;;;;;;;5064340;28;20449;-63
2021/10/22 08:12:24;;;;;;;9.73;2.33;;;;;;;;;;5063736;28;20021;-63
2021/10/22 08:14:50;;;;;;;9.68;1.85;;;;;;;;;;5061756;28;20070;-63
2021/10/22 08:17:17;;;;;;;14.18;2.50;;;;;;;;;;5061621;28;20017;-63
2021/10/22 08:19:45;;;;;;;13.25;1.73;;;;;;;;;;5064399;28;20016;-63
2021/10/22 08:22:27;;;;;;;15.20;2.33;;;;;;;;;;5064239;28;20016;-63
2021/10/22 08:25:00;;;;;;;8.38;1.60;;;;;;;;;;5059491;28;20021;-63
2021/10/22 08:27:27;;;;;;;10.63;2.10;;;;;;;;;;5067182;28;20111;-64
2021/10/22 08:29:53;;;;;;;9.13;1.98;;;;;;;;;;5058570;28;20016;-63
2021/10/22 08:32:19;;;;;;;12.13;2.00;;;;;;;;;;5062945;28;20029;-62
2021/10/22 08:34:45;;;;;;;16.23;1.92;;;;;;;;;;5061738;28;20426;-63
2021/10/22 08:37:12;;;;;;;9.88;1.60;;;;;;;;;;5061631;28;20096;-63
2021/10/22 08:39:44;;;;;;;14.05;2.10;;;;;;;;;;5062709;28;20033;-63
2021/10/22 08:42:11;;;;;;;10.57;2.13;;;;;;;;;;5059005;28;20049;-62
2021/10/22 08:44:38;;;;;;;11.10;1.85;;;;;;;;;;5061622;28;20492;-63
2021/10/22 08:47:04;;;;;;;8.82;2.00;;;;;;;;;;5061675;28;20584;-63
2021/10/22 08:49:31;;;;;;;11.70;2.10;;;;;;;;;;5063982;28;20013;-63
2021/10/22 08:51:59;;;;;;;11.88;1.80;;;;;;;;;;5059469;28;20029;-63
2021/10/22 08:54:25;;;;;;;11.52;2.08;;;;;;;;;;5043604;28;20108;-64
2021/10/22 08:56:51;;;;;;;15.30;2.08;;;;;;;;;;5063998;28;20025;-63
2021/10/22 08:59:17;;;;;;;14.85;2.33;;;;;;;;;;5064220;28;20028;-63
2021/10/22 09:02:02;;;;;;;17.63;2.10;;;;;;;;;;5061323;28;20025;-63
2021/10/22 09:04:34;;;;;;;13.50;2.20;;;;;;;;;;5059986;28;20021;-64
2021/10/22 09:07:00;;;;;;;10.67;2.13;;;;;;;;;;5057642;28;20041;-64
2021/10/22 09:09:26;;;;;;;10.10;2.28;;;;;;;;;;5061346;28;20040;-63
2021/10/22 09:11:52;;;;;;;10.95;2.42;;;;;;;;;;5062234;28;20353;-63
2021/10/22 09:14:18;;;;;;;12.88;2.30;;;;;;;;;;5063689;28;20048;-63
2021/10/22 09:16:48;;;;;;;12.77;2.42;;;;;;;;;;5060767;28;20055;-63
2021/10/22 09:19:15;;;;;;;11.73;1.98;;;;;;;;;;5057374;28;20025;-63
2021/10/22 09:21:42;;;;;;;14.05;2.35;;;;;;;;;;5059374;28;20016;-63
2021/10/22 09:24:19;;;;;;;9.40;1.77;;;;;;;;;;5061621;28;20533;-64
2021/10/22 09:26:52;;;;;;;15.95;2.08;;;;;;;;;;5064917;28;20044;-64
2021/10/22 09:29:21;;;;;;;15.75;1.92;;;;;;;;;;5059735;28;20160;-62
2021/10/22 09:31:49;;;;;;;13.32;1.92;;;;;;;;;;5062770;28;20044;-63
2021/10/22 09:34:33;;;;;;;10.77;1.80;;;;;;;;;;5056491;28;20045;-63
2021/10/22 09:37:03;;;;;;;14.13;1.90;;;;;;;;;;5059997;28;20021;-64
2021/10/22 09:39:33;;;;;;;30.15;2.75;;;;;;;;;;5060829;28;20033;-63
2021/10/22 09:42:00;;;;;;;24.05;2.65;;;;;;;;;;5061874;28;20025;-63
2021/10/22 09:44:26;;;;;;;26.08;2.63;;;;;;;;;;5065461;28;20031;-64
2021/10/22 09:47:12;;;;;;;17.23;2.10;;;;;;;;;;5046141;28;20059;-64
2021/10/22 09:49:43;;;;;;;18.70;2.40;;;;;;;;;;5063615;28;20013;-64
2021/10/22 09:52:15;;;;;;;16.80;2.50;;;;;;;;;;5059320;28;20108;-64
2021/10/22 09:54:41;;;;;;;14.10;2.33;;;;;;;;;;5059774;28;20024;-64
2021/10/22 09:57:08;;;;;;;13.57;2.22;;;;;;;;;;5062154;28;20431;-64
2021/10/22 09:59:36;;;;;;;20.15;2.55;;;;;;;;;;5062799;28;20104;-65
2021/10/22 10:02:02;;;;;;;17.52;2.40;;;;;;;;;;5052984;28;20031;-65
2021/10/22 10:04:29;;;;;;;12.00;1.88;;;;;;;;;;5065093;28;20025;-65
2021/10/22 10:06:57;;;;;;;15.73;2.55;;;;;;;;;;5060500;28;20521;-64
2021/10/22 10:09:26;;;;;;;12.73;2.45;;;;;;;;;;5062351;28;20026;-64
2021/10/22 10:11:54;;;;;;;13.35;2.45;;;;;;;;;;5059979;28;20087;-64
2021/10/22 10:14:23;;;;;;;11.73;2.13;;;;;;;;;;5061237;28;20033;-65
2021/10/22 10:16:49;;;;;;;10.75;2.50;;;;;;;;;;5058457;28;20111;-64
2021/10/22 10:19:22;;;;;;;18.10;2.83;;;;;;;;;;5063411;28;20130;-64
2021/10/22 10:21:54;;;;;;;10.40;2.20;;;;;;;;;;5058664;28;20028;-64
2021/10/22 10:24:21;;;;;;;13.73;2.08;;;;;;;;;;5049888;28;20165;-64
2021/10/22 10:27:00;;;;;;;18.63;2.20;;;;;;;;;;5067803;28;20522;-64
2021/10/22 10:29:31;;;;;;;9.25;1.88;;;;;;;;;;5058048;28;20517;-65
2021/10/22 10:32:08;;;;;;;16.00;3.03;;;;;;;;;;5066511;28;20028;-64
2021/10/22 10:34:35;;;;;;;9.18;1.83;;;;;;;;;;5062066;28;20025;-64
2021/10/22 10:37:07;;;;;;;13.20;2.15;;;;;;;;;;5061455;28;20091;-64
2021/10/22 10:39:42;;;;;;;12.02;2.70;;;;;;;;;;5064192;28;20060;-64
2021/10/22 10:42:19;;;;;;;11.65;2.00;;;;;;;;;;5062802;28;20155;-65
2021/10/22 10:44:46;;;;;;;13.00;2.03;;;;;;;;;;5060762;28;20032;-64
2021/10/22 10:47:27;;;;;;;8.93;1.90;;;;;;;;;;5062456;28;20033;-64
2021/10/22 10:49:53;;;;;;;11.15;2.00;;;;;;;;;;5065023;28;20021;-63
2021/10/22 10:52:48;;;;;;;7.53;1.52;;;;;;;;;;5063369;28;20028;-65
2021/10/22 10:55:19;;;;;;;9.27;1.40;;;;;;;;;;5055796;28;20036;-64
2021/10/22 10:57:46;;;;;;;6.05;1.50;;;;;;;;;;5060476;28;20021;-64
2021/10/22 11:00:21;;;;;;;9.27;2.15;;;;;;;;;;5061075;28;20035;-64
2021/10/22 11:03:02;;;;;;;13.68;2.25;;;;;;;;;;5062339;28;20020;-64
2021/10/22 11:08:13;;;;;;;7.97;1.80;;;;;;;;;;5056185;28;20048;-65
2021/10/22 11:11:02;;;;;;;8.77;1.88;;;;;;;;;;5057565;28;20017;-64
2021/10/22 11:13:43;;;;;;;6.88;1.95;;;;;;;;;;5054933;28;20052;-65
2021/10/22 11:16:21;;;;;;;8.18;1.77;;;;;;;;;;5055032;28;20061;-63
2021/10/22 11:19:03;;;;;;;6.03;1.80;;;;;;;;;;5055053;28;20026;-63
2021/10/22 11:21:30;;;;;;;8.77;1.83;;;;;;;;;;5055103;28;20441;-64
2021/10/22 11:23:57;;;;;;;9.35;1.63;;;;;;;;;;5054732;28;20103;-63
2021/10/22 11:26:23;;;;;;;15.38;1.70;;;;;;;;;;5054390;28;20388;-64
2021/10/22 11:28:53;;;;;;;7.35;1.48;;;;;;;;;;5064529;28;20456;-64
2021/10/22 11:31:39;;;;;;;13.43;1.60;;;;;;;;;;5074294;28;20028;-63
2021/10/22 11:34:05;;;;;;;10.88;1.88;;;;;;;;;;5072864;28;20111;-65
2021/10/22 11:36:32;;;;;;;7.57;1.70;;;;;;;;;;5060668;28;20028;-63
2021/10/22 11:38:58;;;;;;;12.82;2.13;;;;;;;;;;5057426;28;20435;-63
2021/10/22 11:41:24;;;;;;;9.05;1.70;;;;;;;;;;5062076;28;20025;-63
2021/10/22 11:44:03;;;;;;;11.70;2.05;;;;;;;;;;5072499;28;20039;-63
2021/10/22 11:46:45;;;;;;;13.27;2.05;;;;;;;;;;5054781;28;20029;-63
2021/10/22 11:49:44;;;;;;;12.50;1.88;;;;;;;;;;5041387;28;20070;-63
2021/10/22 11:52:11;;;;;;;6.45;1.48;;;;;;;;;;5042286;28;20040;-63
2021/10/22 11:54:43;;;;;;;11.30;2.00;;;;;;;;;;5060052;28;20029;-63
2021/10/22 11:57:11;;;;;;;8.95;2.08;;;;;;;;;;5053000;28;20056;-63
2021/10/22 11:59:48;;;;;;;10.10;1.75;;;;;;;;;;5035008;28;20024;-63
2021/10/22 12:02:15;;;;;;;6.70;1.45;;;;;;;;;;5046237;28;20408;-64
2021/10/22 12:04:41;;;;;;;10.48;1.70;;;;;;;;;;5054413;28;20035;-63
2021/10/22 12:07:08;;;;;;;8.38;1.83;;;;;;;;;;5035305;28;20119;-65
2021/10/22 12:09:35;;;;;;;9.00;1.50;;;;;;;;;;5060012;28;20017;-63
2021/10/22 12:12:07;;;;;;;8.50;1.60;;;;;;;;;;5064695;28;20028;-63
2021/10/22 12:14:34;;;;;;;7.70;1.63;;;;;;;;;;5073661;28;20138;-63
2021/10/22 12:17:01;;;;;;;7.45;1.60;;;;;;;;;;5068635;28;20033;-63
2021/10/22 12:19:27;;;;;;;6.28;1.40;;;;;;;;;;5064034;28;20032;-64
2021/10/22 12:21:53;;;;;;;10.23;1.77;;;;;;;;;;5050464;28;20036;-63
2021/10/22 12:24:20;;;;;;;8.63;1.42;;;;;;;;;;5046088;28;20018;-63
2021/10/22 12:26:46;;;;;;;5.18;1.20;;;;;;;;;;5058400;28;20086;-63
2021/10/22 12:29:12;;;;;;;7.13;1.63;;;;;;;;;;5044152;28;20679;-63
2021/10/22 12:31:39;;;;;;;10.18;2.20;;;;;;;;;;5055183;28;20033;-63
2021/10/22 12:34:24;;;;;;;13.95;1.88;;;;;;;;;;5046780;28;20044;-63
2021/10/22 12:37:05;;;;;;;14.32;1.90;;;;;;;;;;5061522;28;20029;-62
2021/10/22 12:39:32;;;;;;;14.50;1.90;;;;;;;;;;5059469;28;20112;-64
2021/10/22 12:41:58;;;;;;;16.88;1.88;;;;;;;;;;5063028;28;20021;-63
2021/10/22 12:44:31;;;;;;;10.82;1.55;;;;;;;;;;5065551;28;20033;-63
2021/10/22 12:46:58;;;;;;;8.48;1.60;;;;;;;;;;5057245;28;20025;-63
2021/10/22 12:49:25;;;;;;;8.52;1.35;;;;;;;;;;5059757;28;20021;-63
2021/10/22 12:51:55;;;;;;;11.55;1.48;;;;;;;;;;5043735;28;20023;-63
2021/10/22 12:54:21;;;;;;;6.40;1.48;;;;;;;;;;5061805;28;20097;-63
2021/10/22 12:56:53;;;;;;;7.57;1.63;;;;;;;;;;5065136;28;20103;-63
2021/10/22 12:59:23;;;;;;;5.03;1.17;;;;;;;;;;5056298;28;20013;-63
2021/10/22 13:01:49;;;;;;;7.70;1.83;;;;;;;;;;5063756;28;20012;-63
2021/10/22 13:04:19;;;;;;;8.85;1.75;;;;;;;;;;5055926;28;20024;-63
2021/10/22 13:07:01;;;;;;;11.88;1.65;;;;;;;;;;5061294;28;20063;-63
2021/10/22 13:22:49;;;;;;;10.68;1.75;;;;;;;;;;5062049;28;20051;-63
2021/10/22 13:25:16;;;;;;;11.75;1.52;;;;;;;;;;5065956;28;20115;-63
2021/10/22 13:27:43;;;;;;;10.10;1.73;;;;;;;;;;5060644;28;20464;-63
2021/10/22 13:30:17;;;;;;;16.75;1.88;;;;;;;;;;5063532;28;20031;-64
2021/10/22 13:32:44;;;;;;;12.20;1.83;;;;;;;;;;5056857;28;20017;-63
2021/10/22 13:35:11;;;;;;;10.85;1.70;;;;;;;;;;5061108;28;20474;-63
2021/10/22 13:37:37;;;;;;;10.25;2.22;;;;;;;;;;5060596;28;20095;-64
2021/10/22 13:40:04;;;;;;;14.10;2.13;;;;;;;;;;5043922;28;20020;-63
2021/10/22 13:42:30;;;;;;;13.20;1.75;;;;;;;;;;5063788;28;20104;-63
2021/10/22 13:44:57;;;;;;;13.68;1.98;;;;;;;;;;5061269;28;20100;-63
2021/10/22 13:47:23;;;;;;;13.32;1.90;;;;;;;;;;5064320;28;20077;-63
2021/10/22 13:49:49;;;;;;;14.00;2.05;;;;;;;;;;5064398;28;20013;-63
2021/10/22 13:52:15;;;;;;;10.75;2.08;;;;;;;;;;5064334;28;20024;-64
2021/10/22 13:54:42;;;;;;;11.23;1.80;;;;;;;;;;5063219;28;20025;-63
2021/10/22 13:57:08;;;;;;;18.13;1.92;;;;;;;;;;5067186;28;20021;-63
2021/10/22 13:59:36;;;;;;;13.07;1.83;;;;;;;;;;5071014;28;20078;-63
2021/10/22 14:02:03;;;;;;;11.80;1.85;;;;;;;;;;5076867;28;20453;-64
2021/10/22 14:04:29;;;;;;;14.10;2.13;;;;;;;;;;5076712;28;20047;-64
2021/10/22 14:06:55;;;;;;;11.60;2.03;;;;;;;;;;5076350;28;20384;-65
2021/10/22 14:09:21;;;;;;;10.63;2.03;;;;;;;;;;5076495;28;20098;-63
2021/10/22 14:12:14;;;;;;;13.57;2.15;;;;;;;;;;5076371;28;20056;-64
2021/10/22 14:14:48;;;;;;;10.38;1.98;;;;;;;;;;5075873;28;20046;-63
2021/10/22 14:30:39;;;;;;;14.00;2.17;;;;;;;;;;5061963;28;20047;-63
2021/10/22 14:33:07;;;;;;;10.30;1.92;;;;;;;;;;5065916;28;20040;-64
2021/10/22 14:35:33;;;;;;;6.53;1.60;;;;;;;;;;5066400;28;20039;-64
2021/10/22 14:37:59;;;;;;;10.57;1.40;;;;;;;;;;5066908;28;20052;-64
2021/10/22 14:40:26;;;;;;;11.73;2.38;;;;;;;;;;5063009;28;20063;-64
2021/10/22 14:42:52;;;;;;;7.82;1.48;;;;;;;;;;5065600;28;20461;-64
2021/10/22 14:45:32;;;;;;;8.63;1.73;;;;;;;;;;5066130;28;20025;-63
2021/10/22 14:48:02;;;;;;;5.75;1.20;;;;;;;;;;5066473;28;20020;-64
2021/10/22 14:50:29;;;;;;;9.63;1.50;;;;;;;;;;5065476;28;20037;-64
2021/10/22 14:57:51;;;;;;;13.48;1.67;;;;;;;;;;5062260;28;20860;-64
2021/10/22 15:00:17;;;;;;;6.15;1.33;;;;;;;;;;5063882;28;20385;-64
2021/10/22 15:02:43;;;;;;;8.68;1.40;;;;;;;;;;5049067;28;20329;-64
2021/10/22 15:05:10;;;;;;;7.00;1.02;;;;;;;;;;5062661;28;20033;-64
2021/10/22 15:07:36;;;;;;;6.00;1.20;;;;;;;;;;5064589;28;20041;-63
2021/10/22 15:10:03;;;;;;;8.88;1.20;;;;;;;;;;5050764;28;20359;-63
2021/10/22 15:12:29;;;;;;;5.07;1.30;;;;;;;;;;5063217;28;20369;-63
2021/10/22 15:14:55;;;;;;;11.00;1.67;;;;;;;;;;5065549;28;20020;-64
2021/10/22 15:17:21;;;;;;;8.23;1.40;;;;;;;;;;5063584;28;20017;-63
2021/10/22 15:19:47;;;;;;;9.95;1.60;;;;;;;;;;5066618;28;20388;-63
2021/10/22 15:22:14;;;;;;;5.55;1.10;;;;;;;;;;5056212;28;20057;-64